Time;durP1;ratioP1;P1;durP2;ratioP2;P2;SDS_P1;SDS_P2;PMS_P1;PMS_P2;Temp;Humidity;BMP_temperature;BMP_pressure;BME280_temperature;BME280_humidity;BME280_pressure;Samples;Min_cycle;Max_cycle;Signal;HPM_P1;HPM_P2
2023/11/23 00:01:43;;;;;;;1999.90;999.90;;;;;;;9.76;81.80;96761.03;5117549;28;20072;-63
2023/11/23 00:04:10;;;;;;;1999.90;999.90;;;;;;;9.71;81.05;96766.41;5117603;28;20079;-65
2023/11/23 00:06:37;;;;;;;1999.90;999.90;;;;;;;9.75;81.04;96761.97;5117247;28;20051;-63
2023/11/23 00:09:06;;;;;;;1999.90;999.90;;;;;;;9.78;80.76;96756.63;5117486;28;20053;-65
2023/11/23 00:11:34;;;;;;;1999.90;999.90;;;;;;;9.73;80.88;96759.38;5117419;28;20058;-63
2023/11/23 00:14:01;;;;;;;1999.90;999.90;;;;;;;9.71;80.76;96766.41;5117497;28;20043;-63
2023/11/23 00:16:30;;;;;;;1999.90;999.90;;;;;;;9.68;79.99;96766.50;5117307;28;20040;-63
2023/11/23 00:18:57;;;;;;;1999.90;999.90;;;;;;;9.66;80.42;96774.38;5117359;28;20138;-63
2023/11/23 00:21:24;;;;;;;1999.90;999.90;;;;;;;9.66;80.23;96776.16;5117226;28;20505;-64
2023/11/23 00:23:53;;;;;;;1999.90;999.90;;;;;;;9.63;80.38;96776.25;5117153;28;20056;-63
2023/11/23 00:26:20;;;;;;;1999.90;999.90;;;;;;;9.58;80.65;96782.44;5117258;28;20412;-64
2023/11/23 00:28:47;;;;;;;1999.90;999.90;;;;;;;9.57;81.03;96785.13;5117114;28;20043;-63
2023/11/23 00:31:14;;;;;;;1999.90;999.90;;;;;;;9.54;81.39;96788.66;5117076;28;20497;-63
2023/11/23 00:33:43;;;;;;;1999.90;999.90;;;;;;;9.57;81.20;96788.56;5116868;28;20092;-62
2023/11/23 00:36:13;;;;;;;1999.90;999.90;;;;;;;9.63;81.33;96781.47;5117039;28;20130;-63
2023/11/23 00:38:41;;;;;;;1999.90;999.90;;;;;;;9.68;81.69;96787.41;5116943;28;20075;-65
2023/11/23 00:41:08;;;;;;;1999.90;999.90;;;;;;;9.70;81.86;96793.44;5116896;28;20082;-65
2023/11/23 00:43:36;;;;;;;1999.90;999.90;;;;;;;9.70;81.92;96791.66;5116970;28;20048;-62
2023/11/23 00:46:03;;;;;;;1999.90;999.90;;;;;;;9.72;82.50;96796.84;5116806;27;20054;-62
2023/11/23 00:48:31;;;;;;;1999.90;999.90;;;;;;;9.71;82.74;96797.75;5116728;28;20105;-66
2023/11/23 00:51:01;;;;;;;1999.90;999.90;;;;;;;9.73;83.69;96801.19;5116686;28;20067;-65
2023/11/23 00:53:29;;;;;;;1999.90;999.90;;;;;;;9.76;83.89;96795.00;5116597;28;20130;-64
2023/11/23 00:55:57;;;;;;;1999.90;999.90;;;;;;;9.77;84.24;96804.53;5116472;28;20044;-65
2023/11/23 00:58:24;;;;;;;1999.90;999.90;;;;;;;9.81;84.38;96807.03;5116601;28;20100;-63
2023/11/23 01:00:51;;;;;;;1999.90;999.90;;;;;;;9.82;84.19;96805.28;5116704;28;20048;-61
2023/11/23 01:03:18;;;;;;;1999.90;999.90;;;;;;;9.82;84.37;96810.50;5116120;28;20044;-61
2023/11/23 01:05:45;;;;;;;1999.90;999.90;;;;;;;9.81;84.75;96806.19;5116303;28;20443;-63
2023/11/23 01:08:14;;;;;;;1999.90;999.90;;;;;;;9.75;86.03;96812.44;5116169;28;20108;-64
2023/11/23 01:10:41;;;;;;;1999.90;999.90;;;;;;;9.66;87.27;96808.34;5116611;28;20044;-64
2023/11/23 01:13:08;;;;;;;1999.90;999.90;;;;;;;9.66;87.94;96807.50;5116501;28;20070;-64
2023/11/23 01:15:35;;;;;;;1999.90;999.90;;;;;;;9.65;88.06;96798.81;5116131;28;20086;-62
2023/11/23 01:18:02;;;;;;;1999.90;999.90;;;;;;;9.65;88.11;96800.53;5116123;28;20092;-61
2023/11/23 01:20:29;;;;;;;1999.90;999.90;;;;;;;9.66;88.21;96804.88;5116103;28;20100;-62
2023/11/23 01:22:56;;;;;;;1999.90;999.90;;;;;;;9.69;88.19;96802.19;5116046;28;20135;-62
2023/11/23 01:25:25;;;;;;;1999.90;999.90;;;;;;;9.68;88.32;96800.47;5116261;28;20043;-65
2023/11/23 01:27:51;;;;;;;1999.90;999.90;;;;;;;9.71;88.09;96802.97;5115977;28;20051;-62
2023/11/23 01:30:18;;;;;;;1999.90;999.90;;;;;;;9.71;88.13;96805.59;5115983;28;20054;-64
2023/11/23 01:32:46;;;;;;;1999.90;999.90;;;;;;;9.67;88.21;96817.91;5115676;28;20505;-65
2023/11/23 01:35:13;;;;;;;1999.90;999.90;;;;;;;9.68;88.58;96819.59;5115814;28;20051;-62
2023/11/23 01:37:40;;;;;;;1999.90;999.90;;;;;;;9.69;88.57;96818.69;5115848;28;20056;-62
2023/11/23 01:40:08;;;;;;;1999.90;999.90;;;;;;;9.67;88.68;96830.09;5115782;28;20051;-63
2023/11/23 01:42:37;;;;;;;1999.90;999.90;;;;;;;9.62;88.93;96819.78;5115692;28;20043;-63
2023/11/23 01:45:04;;;;;;;1999.90;999.90;;;;;;;9.63;89.12;96824.09;5115566;28;20444;-63
2023/11/23 01:47:33;;;;;;;1999.90;999.90;;;;;;;9.62;89.17;96825.00;5115511;28;20051;-61
2023/11/23 01:50:03;;;;;;;1999.90;999.90;;;;;;;9.58;89.53;96833.84;5115606;28;20097;-64
2023/11/23 01:52:30;;;;;;;1999.90;999.90;;;;;;;9.57;89.91;96837.38;5115496;28;20053;-64
2023/11/23 01:54:58;;;;;;;1999.90;999.90;;;;;;;9.58;90.10;96845.13;5115435;28;20075;-62
2023/11/23 01:57:26;;;;;;;1999.90;999.90;;;;;;;9.58;90.23;96858.19;5115309;28;20551;-62
2023/11/23 01:59:56;;;;;;;1999.90;999.90;;;;;;;9.58;90.53;96859.97;5115433;28;20116;-65
2023/11/23 02:02:23;;;;;;;1999.90;999.90;;;;;;;9.57;90.50;96855.66;5115335;28;20047;-61
2023/11/23 02:04:52;;;;;;;1999.90;999.90;;;;;;;9.58;90.43;96857.34;5115220;28;20560;-62
2023/11/23 02:07:20;;;;;;;1999.90;999.90;;;;;;;9.53;90.36;96854.00;5114952;28;20080;-63
2023/11/23 02:09:47;;;;;;;1999.90;999.90;;;;;;;9.46;90.41;96859.41;5115204;28;20129;-66
2023/11/23 02:12:14;;;;;;;1999.90;999.90;;;;;;;9.51;90.58;96846.22;5115093;28;20052;-65
2023/11/23 02:14:41;;;;;;;1999.90;999.90;;;;;;;9.53;90.66;96854.00;5114260;28;20097;-63
2023/11/23 02:17:17;;;;;;;1999.90;999.90;;;;;;;9.47;90.86;96862.88;5115091;28;20052;-62
2023/11/23 02:19:44;;;;;;;1999.90;999.90;;;;;;;9.45;90.85;96859.47;5114981;28;20044;-65
2023/11/23 02:22:11;;;;;;;1999.90;999.90;;;;;;;9.43;90.90;96862.13;5114955;28;20062;-65
2023/11/23 02:24:40;;;;;;;1999.90;999.90;;;;;;;9.41;90.92;96861.28;5114857;28;20115;-65
2023/11/23 02:27:08;;;;;;;1999.90;999.90;;;;;;;9.41;91.13;96860.44;5114780;28;20044;-62
2023/11/23 02:29:35;;;;;;;1999.90;999.90;;;;;;;9.43;90.64;96862.13;5114756;28;20054;-65
2023/11/23 02:32:07;;;;;;;1999.90;999.90;;;;;;;9.42;90.66;96868.22;5114708;28;20051;-64
2023/11/23 02:34:34;;;;;;;1999.90;999.90;;;;;;;9.45;90.47;96873.34;5114724;28;20065;-62
2023/11/23 02:37:01;;;;;;;1999.90;999.90;;;;;;;9.47;90.40;96874.19;5114628;28;20048;-64
2023/11/23 02:39:29;;;;;;;1999.90;999.90;;;;;;;9.41;91.16;96881.31;5114705;28;20039;-64
2023/11/23 02:41:59;;;;;;;1999.90;999.90;;;;;;;9.39;91.63;96880.53;5114725;28;20044;-65
2023/11/23 02:44:26;;;;;;;1999.90;999.90;;;;;;;9.40;91.72;96877.88;5114472;27;20485;-65
2023/11/23 02:46:53;;;;;;;1999.90;999.90;;;;;;;9.36;91.63;96873.59;5114300;28;20500;-63
2023/11/23 02:49:20;;;;;;;1999.90;999.90;;;;;;;9.36;91.61;96868.38;5114613;28;20048;-61
2023/11/23 02:51:47;;;;;;;1999.90;999.90;;;;;;;9.33;90.58;96864.13;5114486;28;20055;-63
2023/11/23 02:54:14;;;;;;;1999.90;999.90;;;;;;;9.30;90.58;96864.19;5114193;28;20093;-62
2023/11/23 02:56:41;;;;;;;1999.90;999.90;;;;;;;9.21;89.79;96873.13;5114330;28;20046;-64
2023/11/23 02:59:10;;;;;;;1999.90;999.90;;;;;;;9.12;89.90;96883.81;5114109;28;20047;-65
2023/11/23 03:01:37;;;;;;;1999.90;999.90;;;;;;;9.09;89.91;96886.50;5114169;28;20048;-65
2023/11/23 03:04:05;;;;;;;1999.90;999.90;;;;;;;9.01;90.65;96881.53;5114042;28;20493;-64
2023/11/23 03:06:32;;;;;;;1999.90;999.90;;;;;;;8.91;91.83;96886.09;5113707;27;20547;-65
2023/11/23 03:08:59;;;;;;;1999.90;999.90;;;;;;;8.83;92.06;96888.06;5113998;28;20460;-65
2023/11/23 03:11:27;;;;;;;1999.90;999.90;;;;;;;8.83;92.60;96891.53;5114075;28;20082;-65
2023/11/23 03:13:57;;;;;;;1999.90;999.90;;;;;;;8.79;92.99;96882.06;5113885;28;20055;-64
2023/11/23 03:16:25;;;;;;;1999.90;999.90;;;;;;;8.86;92.86;96895.81;5113979;28;20405;-65
2023/11/23 03:18:52;;;;;;;1999.90;999.90;;;;;;;8.86;92.78;96898.44;5113965;27;20044;-65
2023/11/23 03:21:19;;;;;;;1999.90;999.90;;;;;;;8.89;92.30;96890.53;5113889;28;20075;-65
2023/11/23 03:23:47;;;;;;;1999.90;999.90;;;;;;;8.90;92.11;96891.34;5114045;28;20451;-65
2023/11/23 03:26:14;;;;;;;1999.90;999.90;;;;;;;8.79;92.67;96891.66;5113614;28;20050;-66
2023/11/23 03:28:41;;;;;;;1999.90;999.90;;;;;;;8.74;91.73;96898.72;5113651;28;20047;-62
2023/11/23 03:31:09;;;;;;;1999.90;999.90;;;;;;;8.57;90.87;96897.38;5113709;28;20085;-63
2023/11/23 03:33:38;;;;;;;1999.90;999.90;;;;;;;8.38;91.82;96899.53;5113649;28;20083;-63
2023/11/23 03:36:06;;;;;;;1999.90;999.90;;;;;;;8.27;91.60;96897.19;5113577;28;20048;-62
2023/11/23 03:38:33;;;;;;;1999.90;999.90;;;;;;;8.17;91.50;96900.00;5113518;28;20147;-65
2023/11/23 03:41:00;;;;;;;1999.90;999.90;;;;;;;8.13;91.70;96898.34;5113718;28;20048;-64
2023/11/23 03:43:27;;;;;;;1999.90;999.90;;;;;;;8.06;92.00;96904.59;5113752;28;20432;-63
2023/11/23 03:45:54;;;;;;;1999.90;999.90;;;;;;;8.03;93.11;96918.56;5113628;28;20043;-61
2023/11/23 03:48:21;;;;;;;1999.90;999.90;;;;;;;7.94;92.58;96922.22;5113421;28;20078;-62
2023/11/23 03:50:50;;;;;;;1999.90;999.90;;;;;;;7.81;92.67;96924.22;5113436;28;20516;-66
2023/11/23 03:53:18;;;;;;;1999.90;999.90;;;;;;;7.79;93.50;96927.72;5113528;28;20051;-64
2023/11/23 03:55:45;;;;;;;1999.90;999.90;;;;;;;7.78;93.15;96933.84;5113342;28;20087;-65
2023/11/23 03:58:12;;;;;;;1999.90;999.90;;;;;;;7.80;93.01;96926.88;5113401;28;20131;-65
2023/11/23 04:00:40;;;;;;;1999.90;999.90;;;;;;;7.80;93.29;96937.28;5113508;28;20089;-63
2023/11/23 04:03:07;;;;;;;1999.90;999.90;;;;;;;7.77;93.56;96938.19;5113391;28;20140;-64
2023/11/23 04:05:34;;;;;;;1999.90;999.90;;;;;;;7.73;93.98;96930.50;5113352;28;20062;-65
2023/11/23 04:08:03;;;;;;;1999.90;999.90;;;;;;;7.75;94.30;96929.56;5113425;28;20047;-63
2023/11/23 04:10:30;;;;;;;1999.90;999.90;;;;;;;7.77;94.00;96942.56;5113404;28;20082;-64
2023/11/23 04:12:57;;;;;;;1999.90;999.90;;;;;;;7.76;93.76;96941.69;5113328;28;20131;-66
2023/11/23 04:15:24;;;;;;;1999.90;999.90;;;;;;;7.73;94.12;96944.34;5113206;28;20051;-65
2023/11/23 04:17:50;;;;;;;1999.90;999.90;;;;;;;7.74;95.13;96937.41;5113396;28;20047;-63
2023/11/23 04:20:18;;;;;;;1999.90;999.90;;;;;;;7.77;94.63;96937.34;5113159;28;20043;-64
2023/11/23 04:22:45;;;;;;;1999.90;999.90;;;;;;;7.80;94.80;96938.13;5113338;28;20043;-63
2023/11/23 04:25:14;;;;;;;1999.90;999.90;;;;;;;7.82;94.77;96949.38;5113230;28;20044;-66
2023/11/23 04:27:42;;;;;;;1999.90;999.90;;;;;;;7.81;94.82;96946.81;5113169;28;20056;-63
2023/11/23 04:30:11;;;;;;;1999.90;999.90;;;;;;;7.83;94.83;96942.44;5113208;28;20047;-64
2023/11/23 04:32:38;;;;;;;1999.90;999.90;;;;;;;7.88;94.80;96948.38;5113084;28;20052;-63
2023/11/23 04:35:05;;;;;;;1999.90;999.90;;;;;;;7.84;94.46;96952.81;5112998;28;20074;-66
2023/11/23 04:37:34;;;;;;;1999.90;999.90;;;;;;;7.79;94.89;96959.84;5114930;28;20479;-64
2023/11/23 04:40:06;;;;;;;1999.90;999.90;;;;;;;7.83;95.05;96953.69;5117045;28;20485;-65
2023/11/23 04:42:34;;;;;;;1999.90;999.90;;;;;;;7.84;94.93;96954.56;5116916;28;20404;-64
2023/11/23 04:45:02;;;;;;;1999.90;999.90;;;;;;;7.82;94.68;96962.41;5116861;28;20083;-64
2023/11/23 04:47:29;;;;;;;1999.90;999.90;;;;;;;7.85;95.08;96953.66;5117093;28;20048;-65
2023/11/23 04:49:57;;;;;;;1999.90;999.90;;;;;;;7.78;95.26;96954.69;5116791;28;20066;-62
2023/11/23 04:52:24;;;;;;;1999.90;999.90;;;;;;;7.79;94.98;96958.97;5116857;28;20075;-65
2023/11/23 04:54:51;;;;;;;1999.90;999.90;;;;;;;7.76;95.34;96957.31;5116671;28;20051;-65
2023/11/23 04:57:18;;;;;;;1999.90;999.90;;;;;;;7.72;95.63;96958.28;5116707;28;20142;-62
2023/11/23 04:59:46;;;;;;;1999.90;999.90;;;;;;;7.74;95.28;96961.72;5116604;28;20065;-63
2023/11/23 05:02:13;;;;;;;1999.90;999.90;;;;;;;7.74;95.69;96968.66;5116574;28;20043;-66
2023/11/23 05:04:41;;;;;;;1999.90;999.90;;;;;;;7.76;95.15;96964.25;5116451;28;20048;-66
2023/11/23 05:07:08;;;;;;;1999.90;999.90;;;;;;;7.75;95.05;96966.03;5116202;28;20050;-62
2023/11/23 05:09:35;;;;;;;1999.90;999.90;;;;;;;7.69;95.72;96966.13;5116535;28;20130;-62
2023/11/23 05:12:02;;;;;;;1999.90;999.90;;;;;;;7.67;95.92;96971.38;5116444;28;20145;-64
2023/11/23 05:14:30;;;;;;;1999.90;999.90;;;;;;;7.66;95.71;96974.00;5116348;28;20097;-64
2023/11/23 05:16:58;;;;;;;1999.90;999.90;;;;;;;7.64;95.54;96989.66;5116261;28;20405;-67
2023/11/23 05:19:26;;;;;;;1999.90;999.90;;;;;;;7.64;95.53;96980.97;5116197;28;20047;-63
2023/11/23 05:21:53;;;;;;;1999.90;999.90;;;;;;;7.57;96.12;96988.06;5116064;28;20066;-64
2023/11/23 05:24:20;;;;;;;1999.90;999.90;;;;;;;7.52;95.88;96992.47;5116096;28;20047;-66
2023/11/23 05:26:47;;;;;;;1999.90;999.90;;;;;;;7.55;96.30;96998.50;5116176;28;20048;-62
2023/11/23 05:29:14;;;;;;;1999.90;999.90;;;;;;;7.62;96.38;96996.66;5115991;28;20485;-62
2023/11/23 05:31:42;;;;;;;1999.90;999.90;;;;;;;7.63;95.94;97002.72;5115835;28;20054;-64
2023/11/23 05:34:11;;;;;;;1999.90;999.90;;;;;;;7.62;95.27;97003.59;5115834;28;20052;-62
2023/11/23 05:36:38;;;;;;;1999.90;999.90;;;;;;;7.60;95.89;97016.66;5115952;28;20044;-66
2023/11/23 05:39:05;;;;;;;1999.90;999.90;;;;;;;7.56;96.12;97012.38;5115916;28;20051;-65
2023/11/23 05:41:32;;;;;;;1999.90;999.90;;;;;;;7.45;96.32;97012.56;5115819;28;20122;-63
2023/11/23 05:43:59;;;;;;;1999.90;999.90;;;;;;;7.45;96.34;97008.25;5115766;28;20568;-66
2023/11/23 05:46:27;;;;;;;1999.90;999.90;;;;;;;7.46;96.78;97009.06;5115753;28;20051;-63
2023/11/23 05:48:54;;;;;;;1999.90;999.90;;;;;;;7.49;97.16;97014.22;5114514;28;20413;-63
2023/11/23 05:51:23;;;;;;;1999.90;999.90;;;;;;;7.42;97.72;97017.84;5115567;28;20100;-66
2023/11/23 05:53:50;;;;;;;1999.90;999.90;;;;;;;7.43;97.64;97014.34;5115512;28;20481;-64
2023/11/23 05:56:17;;;;;;;1999.90;999.90;;;;;;;7.39;97.32;97020.50;5115368;28;20481;-63
2023/11/23 05:58:44;;;;;;;1999.90;999.90;;;;;;;7.39;97.92;97023.09;5115331;28;20055;-66
2023/11/23 06:01:12;;;;;;;1999.90;999.90;;;;;;;7.36;97.84;97024.00;5115436;28;20055;-66
2023/11/23 06:03:38;;;;;;;1999.90;999.90;;;;;;;7.31;98.12;97026.69;5115656;28;20044;-65
2023/11/23 06:06:06;;;;;;;1999.90;999.90;;;;;;;7.32;98.44;97028.41;5115094;28;20093;-64
2023/11/23 06:08:35;;;;;;;1999.90;999.90;;;;;;;7.35;98.23;97022.31;5115210;28;20477;-64
2023/11/23 06:11:02;;;;;;;1999.90;999.90;;;;;;;7.27;97.84;97024.16;5115215;28;20047;-65
2023/11/23 06:13:29;;;;;;;1999.90;999.90;;;;;;;7.18;97.52;97026.06;5115047;28;20122;-66
2023/11/23 06:15:56;;;;;;;1999.90;999.90;;;;;;;7.15;98.65;97026.09;5115160;28;20051;-63
2023/11/23 06:18:23;;;;;;;1999.90;999.90;;;;;;;7.20;98.63;97033.84;5115067;28;20065;-62
2023/11/23 06:20:50;;;;;;;1999.90;999.90;;;;;;;7.11;98.36;97029.66;5115127;28;20130;-65
2023/11/23 06:23:17;;;;;;;1999.90;999.90;;;;;;;7.10;99.05;97038.31;5114788;27;20493;-66
2023/11/23 06:25:45;;;;;;;1999.90;999.90;;;;;;;7.13;99.28;97046.06;5114964;28;20108;-63
2023/11/23 06:28:12;;;;;;;1999.90;999.90;;;;;;;7.08;98.44;97043.53;5114990;28;20047;-64
2023/11/23 06:30:39;;;;;;;1999.90;999.90;;;;;;;7.12;98.95;97046.09;5114755;28;20542;-65
2023/11/23 06:33:06;;;;;;;1999.90;999.90;;;;;;;7.11;99.35;97055.66;5114528;28;20477;-64
2023/11/23 06:35:33;;;;;;;1999.90;999.90;;;;;;;7.04;99.31;97051.41;5114610;28;20055;-65
2023/11/23 06:38:02;;;;;;;1999.90;999.90;;;;;;;7.00;99.75;97063.63;5114618;28;20097;-63
2023/11/23 06:40:30;;;;;;;1999.90;999.90;;;;;;;7.01;100.00;97067.94;5114543;28;20044;-62
2023/11/23 06:42:58;;;;;;;1999.90;999.90;;;;;;;7.04;99.82;97064.41;5114536;28;20101;-65
2023/11/23 06:45:25;;;;;;;1999.90;999.90;;;;;;;7.13;100.00;97066.88;5114594;28;20109;-66
2023/11/23 06:47:52;;;;;;;1999.90;999.90;;;;;;;7.14;99.65;97063.41;5114642;28;20535;-65
2023/11/23 06:50:20;;;;;;;1999.90;999.90;;;;;;;7.13;99.20;97074.69;5114364;28;20058;-66
2023/11/23 06:52:47;;;;;;;1999.90;999.90;;;;;;;7.11;99.09;97073.00;5114654;28;20136;-64
2023/11/23 06:55:15;;;;;;;1999.90;999.90;;;;;;;7.00;99.15;97067.97;5114358;28;20044;-66
2023/11/23 06:57:46;;;;;;;1999.90;999.90;;;;;;;7.04;99.25;97067.03;5114639;28;20104;-66
2023/11/23 07:00:22;;;;;;;1999.90;999.90;;;;;;;7.03;99.75;97068.78;5113949;28;20149;-62
2023/11/23 07:02:50;;;;;;;1999.90;999.90;;;;;;;7.06;99.84;97073.06;5114306;28;20051;-65
2023/11/23 07:05:19;;;;;;;1999.90;999.90;;;;;;;7.03;99.91;97067.91;5114436;28;20040;-66
2023/11/23 07:07:47;;;;;;;1999.90;999.90;;;;;;;7.11;100.00;97066.06;5113922;28;20051;-65
2023/11/23 07:10:14;;;;;;;1999.90;999.90;;;;;;;7.16;100.00;97066.84;5114091;28;20131;-64
2023/11/23 07:12:41;;;;;;;1999.90;999.90;;;;;;;7.21;100.00;97064.16;5113955;28;20104;-62
2023/11/23 07:15:12;;;;;;;1999.90;999.90;;;;;;;7.25;99.27;97070.19;5113890;28;20056;-63
2023/11/23 07:17:41;;;;;;;1999.90;999.90;;;;;;;7.32;99.25;97064.84;5113973;28;20054;-65
2023/11/23 07:20:11;;;;;;;1999.90;999.90;;;;;;;7.37;98.58;97063.94;5113907;28;20044;-65
2023/11/23 07:22:38;;;;;;;1999.90;999.90;;;;;;;7.36;98.34;97068.25;5113861;28;20048;-65
2023/11/23 07:25:08;;;;;;;1999.90;999.90;;;;;;;7.41;98.64;97062.97;5113954;28;20046;-67
2023/11/23 07:27:36;;;;;;;1999.90;999.90;;;;;;;7.46;98.67;97076.75;5113636;28;20078;-64
2023/11/23 07:30:05;;;;;;;1999.90;999.90;;;;;;;7.45;98.24;97075.94;5113862;28;20044;-64
2023/11/23 07:32:33;;;;;;;1999.90;999.90;;;;;;;7.48;97.92;97077.59;5113738;28;20490;-65
2023/11/23 07:35:02;;;;;;;1999.90;999.90;;;;;;;7.49;97.53;97076.72;5113605;28;20054;-60
2023/11/23 07:37:33;;;;;;;1999.90;999.90;;;;;;;7.53;97.91;97078.38;5113642;28;20489;-66
2023/11/23 07:40:03;;;;;;;1999.90;999.90;;;;;;;7.53;97.42;97078.38;5113631;28;20119;-65
2023/11/23 07:42:30;;;;;;;1999.90;999.90;;;;;;;7.54;97.44;97066.22;5113627;28;20044;-62
2023/11/23 07:44:57;;;;;;;1999.90;999.90;;;;;;;7.54;96.82;97066.22;5113511;28;20047;-64
2023/11/23 07:47:24;;;;;;;1999.90;999.90;;;;;;;7.55;96.87;97061.00;5113705;28;20044;-65
2023/11/23 07:49:52;;;;;;;1999.90;999.90;;;;;;;7.62;97.07;97055.69;5113534;28;20104;-64
2023/11/23 07:52:21;;;;;;;1999.90;999.90;;;;;;;7.69;96.89;97052.06;5113573;28;20084;-64
2023/11/23 07:54:49;;;;;;;1999.90;999.90;;;;;;;7.74;97.65;97055.47;5113524;28;20754;-66
2023/11/23 07:57:17;;;;;;;1999.90;999.90;;;;;;;7.78;97.32;97059.72;5113367;28;20083;-66
2023/11/23 07:59:44;;;;;;;1999.90;999.90;;;;;;;7.84;97.11;97067.44;5113457;28;20047;-66
2023/11/23 08:02:11;;;;;;;1999.90;999.90;;;;;;;7.94;97.66;97060.28;5113448;28;20093;-63
2023/11/23 08:04:38;;;;;;;1999.90;999.90;;;;;;;8.03;96.64;97069.69;5113393;28;20485;-66
2023/11/23 08:07:05;;;;;;;1999.90;999.90;;;;;;;7.99;94.10;97075.84;5113307;28;20096;-65
2023/11/23 08:09:34;;;;;;;1999.90;999.90;;;;;;;7.99;93.23;97082.78;5113297;28;20119;-64
2023/11/23 08:12:02;;;;;;;1999.90;999.90;;;;;;;7.96;93.51;97086.31;5114220;28;20485;-66
2023/11/23 08:14:29;;;;;;;1999.90;999.90;;;;;;;7.99;93.63;97075.84;5117371;28;20079;-66
2023/11/23 08:16:56;;;;;;;1999.90;999.90;;;;;;;7.99;94.18;97070.63;5117432;28;20112;-66
2023/11/23 08:19:25;;;;;;;1999.90;999.90;;;;;;;7.92;93.62;97069.88;5117463;28;20045;-63
2023/11/23 08:21:52;;;;;;;1999.90;999.90;;;;;;;7.82;93.51;97070.94;5117440;28;20085;-64
2023/11/23 08:24:19;;;;;;;1999.90;999.90;;;;;;;7.76;94.54;97081.47;5117176;28;20050;-63
2023/11/23 08:26:47;;;;;;;1999.90;999.90;;;;;;;7.74;94.79;97076.31;5117159;28;20164;-63
2023/11/23 08:29:15;;;;;;;1999.90;999.90;;;;;;;7.67;95.38;97072.94;5117288;28;20040;-64
2023/11/23 08:31:43;;;;;;;1999.90;999.90;;;;;;;7.72;95.79;97059.84;5117114;28;20052;-65
2023/11/23 08:34:11;;;;;;;1999.90;999.90;;;;;;;7.76;95.44;97064.09;5117002;28;20078;-63
2023/11/23 08:36:41;;;;;;;1999.90;999.90;;;;;;;7.79;95.32;97064.03;5117136;28;20044;-65
2023/11/23 08:39:11;;;;;;;;;;;;;;;7.86;94.80;97066.53;5117483;28;20082;-62
2023/11/23 08:41:38;;;;;;;1999.90;999.90;;;;;;;7.96;94.46;97066.34;5116986;27;19919;-63
2023/11/23 08:44:07;;;;;;;1999.90;999.90;;;;;;;8.06;94.43;97073.97;5116802;28;20562;-62
2023/11/23 08:46:35;;;;;;;1999.90;999.90;;;;;;;8.12;94.23;97071.25;5116755;28;20477;-66
2023/11/23 08:49:02;;;;;;;1999.90;999.90;;;;;;;8.12;92.50;97073.00;5116868;28;20051;-63
2023/11/23 08:51:29;;;;;;;1999.90;999.90;;;;;;;8.12;93.21;97065.19;5116924;28;20047;-65
2023/11/23 08:53:57;;;;;;;1999.90;999.90;;;;;;;7.97;93.24;97055.03;5116596;28;20066;-64
2023/11/23 08:56:24;;;;;;;1999.90;999.90;;;;;;;7.94;93.56;97049.88;5116570;28;20074;-62
2023/11/23 08:58:51;;;;;;;1999.90;999.90;;;;;;;7.80;94.22;97050.13;5116692;28;20048;-63
2023/11/23 09:01:20;;;;;;;1999.90;999.90;;;;;;;7.66;94.43;97054.72;5116561;28;20100;-65
2023/11/23 09:03:47;;;;;;;1999.90;999.90;;;;;;;7.54;94.43;97054.06;5116596;28;20054;-62
2023/11/23 09:06:14;;;;;;;1999.90;999.90;;;;;;;7.51;95.09;97059.34;5116286;28;20043;-63
2023/11/23 09:08:42;;;;;;;1999.90;999.90;;;;;;;7.44;95.01;97058.56;5116314;28;20093;-62
2023/11/23 09:11:09;;;;;;;1999.90;999.90;;;;;;;7.31;95.98;97064.88;5116394;28;20047;-66
2023/11/23 09:13:36;;;;;;;1999.90;999.90;;;;;;;7.30;96.54;97056.22;5116307;28;20472;-63
2023/11/23 09:16:03;;;;;;;1999.90;999.90;;;;;;;7.36;96.10;97047.44;5116185;28;20138;-64
2023/11/23 09:18:32;;;;;;;1999.90;999.90;;;;;;;7.35;95.98;97056.16;5116239;28;20134;-62
2023/11/23 09:20:59;;;;;;;1999.90;999.90;;;;;;;7.33;95.90;97047.50;5116306;28;20048;-62
2023/11/23 09:23:27;;;;;;;1999.90;999.90;;;;;;;7.32;95.92;97049.22;5115896;28;20051;-65
2023/11/23 09:25:54;;;;;;;1999.90;999.90;;;;;;;7.32;96.17;97049.22;5116176;28;20051;-64
2023/11/23 09:28:22;;;;;;;1999.90;999.90;;;;;;;7.31;96.25;97059.66;5116069;28;20094;-64
2023/11/23 09:30:49;;;;;;;1999.90;999.90;;;;;;;7.28;96.34;97057.97;5115893;28;20138;-66
2023/11/23 09:33:17;;;;;;;1999.90;999.90;;;;;;;7.31;96.77;97057.94;5115938;28;20512;-63
2023/11/23 09:35:45;;;;;;;1999.90;999.90;;;;;;;7.26;96.98;97053.69;5115815;28;20118;-63
2023/11/23 09:38:12;;;;;;;1999.90;999.90;;;;;;;7.27;97.12;97047.59;5115803;28;20564;-63
2023/11/23 09:40:40;;;;;;;1999.90;999.90;;;;;;;7.27;97.15;97042.38;5115830;28;20554;-62
2023/11/23 09:43:09;;;;;;;1999.90;999.90;;;;;;;7.32;97.80;97044.00;5115730;28;20051;-63
2023/11/23 09:45:37;;;;;;;1999.90;999.90;;;;;;;7.40;97.79;97043.88;5115708;28;20100;-63
2023/11/23 09:48:05;;;;;;;1999.90;999.90;;;;;;;7.42;97.08;97034.31;5115767;28;20100;-62
2023/11/23 09:50:33;;;;;;;1999.90;999.90;;;;;;;7.42;96.48;97030.84;5115591;28;20056;-64
2023/11/23 09:53:04;;;;;;;1999.90;999.90;;;;;;;7.51;96.66;97033.31;5115685;28;20048;-61
2023/11/23 09:55:31;;;;;;;1999.90;999.90;;;;;;;7.61;96.69;97033.16;5115499;28;20047;-65
2023/11/23 09:57:58;;;;;;;1999.90;999.90;;;;;;;7.62;95.64;97032.25;5115543;28;20122;-65
2023/11/23 10:00:26;;;;;;;1999.90;999.90;;;;;;;7.64;95.12;97027.84;5115503;28;20043;-65
2023/11/23 10:02:55;;;;;;;1999.90;999.90;;;;;;;7.62;94.23;97017.50;5115364;28;20044;-64
2023/11/23 10:05:24;;;;;;;1999.90;999.90;;;;;;;7.61;94.56;97020.13;5115345;28;20055;-62
2023/11/23 10:07:53;;;;;;;1999.90;999.90;;;;;;;7.50;94.07;97004.69;5115100;28;20047;-66
2023/11/23 10:10:22;;;;;;;1999.90;999.90;;;;;;;7.38;94.72;97006.63;5115281;28;20086;-63
2023/11/23 10:12:49;;;;;;;1999.90;999.90;;;;;;;7.30;95.08;97006.78;5115267;28;20447;-65
2023/11/23 10:15:16;;;;;;;1999.90;999.90;;;;;;;7.32;95.95;96998.94;5115221;27;20071;-65
2023/11/23 10:17:43;;;;;;;1999.90;999.90;;;;;;;7.36;96.57;96997.13;5115015;28;20137;-62
2023/11/23 10:20:12;;;;;;;1999.90;999.90;;;;;;;7.38;96.47;97000.56;5114923;28;20127;-62
2023/11/23 10:22:44;;;;;;;1999.90;999.90;;;;;;;7.42;95.84;97000.47;5115067;28;20101;-63
2023/11/23 10:25:25;;;;;;;1999.90;999.90;;;;;;;7.32;95.87;96991.97;5114961;27;20480;-63
2023/11/23 10:27:56;;;;;;;1999.90;999.90;;;;;;;7.30;96.09;96983.34;5114746;28;20047;-65
2023/11/23 10:30:25;;;;;;;1999.90;999.90;;;;;;;7.36;96.53;96974.56;5114807;28;20040;-66
2023/11/23 10:32:54;;;;;;;1999.90;999.90;;;;;;;7.41;97.12;96970.13;5114860;28;20051;-64
2023/11/23 10:35:21;;;;;;;1999.90;999.90;;;;;;;7.37;95.60;96967.63;5113900;28;20043;-62
2023/11/23 10:37:54;;;;;;;1999.90;999.90;;;;;;;7.26;95.99;96960.00;5114602;28;20050;-62
2023/11/23 10:40:24;;;;;;;1999.90;999.90;;;;;;;7.27;96.03;96972.13;5114567;28;20143;-61
2023/11/23 10:42:53;;;;;;;1999.90;999.90;;;;;;;7.25;96.27;96963.50;5114661;28;20043;-64
2023/11/23 10:45:21;;;;;;;1999.90;999.90;;;;;;;7.31;95.40;96960.75;5114659;28;20050;-62
2023/11/23 10:47:51;;;;;;;1999.90;999.90;;;;;;;7.33;95.12;96957.25;5114426;28;20082;-63
2023/11/23 10:50:20;;;;;;;1999.90;999.90;;;;;;;7.07;94.17;96949.91;5114592;28;20047;-65
2023/11/23 10:52:48;;;;;;;1999.90;999.90;;;;;;;7.04;94.85;96958.63;5114654;28;20047;-66
2023/11/23 10:55:15;;;;;;;1999.90;999.90;;;;;;;7.15;96.10;96958.44;5114192;28;20044;-65
2023/11/23 10:57:47;;;;;;;1999.90;999.90;;;;;;;7.22;95.23;96956.56;5114440;28;20047;-65
2023/11/23 11:00:17;;;;;;;1999.90;999.90;;;;;;;7.31;94.63;96955.56;5114405;28;20108;-66
2023/11/23 11:02:45;;;;;;;;;;;;;;;7.36;93.12;96945.94;5114791;28;20379;-66
2023/11/23 11:05:25;;;;;;;1999.90;999.90;;;;;;;7.28;93.54;96940.84;5114266;28;19973;-64